createdAt,value
2022-10-23T00:01:34.646Z,63.64
2022-10-23T00:04:04.994Z,63.74
2022-10-23T00:06:33.172Z,63.99
2022-10-23T00:09:01.140Z,63.61
2022-10-23T00:11:30.312Z,63.63
2022-10-23T00:13:59.265Z,63.83
2022-10-23T00:16:27.174Z,63.53
2022-10-23T00:18:55.381Z,63.93
2022-10-23T00:21:24.745Z,63.64
2022-10-23T00:23:52.610Z,63.41
2022-10-23T00:26:20.543Z,63.71
2022-10-23T00:28:50.026Z,63.51
2022-10-23T00:31:18.021Z,63.60
2022-10-23T00:33:46.192Z,63.28
2022-10-23T00:36:14.897Z,63.53
2022-10-23T00:38:44.120Z,63.61
2022-10-23T00:41:15.362Z,63.40
2022-10-23T00:43:57.171Z,63.64
2022-10-23T00:46:25.094Z,63.45
2022-10-23T00:48:52.968Z,63.52
2022-10-23T00:51:20.882Z,63.16
2022-10-23T00:54:01.075Z,63.26
2022-10-23T00:56:39.264Z,63.13
2022-10-23T00:59:07.177Z,63.11
2022-10-23T01:01:35.158Z,63.00
2022-10-23T01:04:03.226Z,63.08
2022-10-23T01:06:35.131Z,63.25
2022-10-23T01:09:09.385Z,63.07
2022-10-23T01:11:40.644Z,63.24
2022-10-23T01:14:13.399Z,63.07
2022-10-23T01:16:43.083Z,62.84
2022-10-23T01:19:13.666Z,62.98
2022-10-23T01:21:47.274Z,62.78
2022-10-23T01:24:20.515Z,63.02
2022-10-23T01:26:54.861Z,62.65
2022-10-23T01:29:26.754Z,62.99
2022-10-23T01:31:57.336Z,62.66
2022-10-23T01:34:28.217Z,62.66
2022-10-23T01:36:56.080Z,62.68
2022-10-23T01:39:25.546Z,62.89
2022-10-23T01:41:54.304Z,62.69
2022-10-23T01:44:25.117Z,62.76
2022-10-23T01:46:53.322Z,62.81
2022-10-23T01:49:21.268Z,62.63
2022-10-23T01:51:50.943Z,62.71
2022-10-23T01:54:19.014Z,62.64
2022-10-23T01:56:47.671Z,62.55
2022-10-23T01:59:16.806Z,62.71
2022-10-23T02:01:47.756Z,62.83
2022-10-23T02:04:18.588Z,62.53
2022-10-23T02:06:46.433Z,62.72
2022-10-23T02:09:14.600Z,62.68
2022-10-23T02:11:45.816Z,62.54
2022-10-23T02:14:17.075Z,62.54
2022-10-23T02:16:47.656Z,62.52
2022-10-23T02:19:18.593Z,62.58
2022-10-23T02:21:51.767Z,62.44
2022-10-23T02:24:21.240Z,62.59
2022-10-23T02:26:51.948Z,62.60
2022-10-23T02:29:20.952Z,62.39
2022-10-23T02:31:50.204Z,62.43
2022-10-23T02:34:18.085Z,62.43
2022-10-23T02:36:45.976Z,62.27
2022-10-23T02:39:13.819Z,62.47
2022-10-23T02:41:43.655Z,62.78
2022-10-23T02:44:24.089Z,63.09
2022-10-23T02:46:56.877Z,63.56
2022-10-23T02:49:26.879Z,63.84
2022-10-23T02:51:58.440Z,63.85
2022-10-23T02:54:35.587Z,64.04
2022-10-23T02:57:05.007Z,64.35
2022-10-23T02:59:35.378Z,64.40
2022-10-23T03:02:07.726Z,64.60
2022-10-23T03:04:36.363Z,64.51
2022-10-23T03:07:04.284Z,64.58
2022-10-23T03:09:32.224Z,64.71
2022-10-23T03:12:00.129Z,64.95
2022-10-23T03:14:27.996Z,64.58
2022-10-23T03:16:55.871Z,65.10
2022-10-23T03:19:25.129Z,64.92
2022-10-23T03:21:52.997Z,64.92
2022-10-23T03:24:20.867Z,65.12
2022-10-23T03:26:48.749Z,65.08
2022-10-23T03:29:16.870Z,65.10
2022-10-23T03:31:44.767Z,64.82
2022-10-23T03:34:13.907Z,64.96
2022-10-23T03:36:43.155Z,64.85
2022-10-23T03:39:11.054Z,64.45
2022-10-23T03:41:38.938Z,64.47
2022-10-23T03:44:06.800Z,64.24
2022-10-23T03:46:34.662Z,64.13
2022-10-23T03:49:02.587Z,64.11
2022-10-23T03:51:30.398Z,64.09
2022-10-23T03:53:59.661Z,64.08
2022-10-23T03:56:27.573Z,64.32
2022-10-23T03:58:55.464Z,63.88
2022-10-23T04:01:23.427Z,63.89
2022-10-23T04:03:51.369Z,63.72
2022-10-23T04:06:19.227Z,63.97
2022-10-23T04:08:47.219Z,63.70
2022-10-23T04:11:16.467Z,63.56
2022-10-23T04:13:44.346Z,64.06
2022-10-23T04:16:12.257Z,63.94
2022-10-23T04:18:41.487Z,63.96
2022-10-23T04:21:09.431Z,63.95
2022-10-23T04:23:37.405Z,63.99
2022-10-23T04:26:05.288Z,63.76
2022-10-23T04:28:34.495Z,63.53
2022-10-23T04:31:02.363Z,63.82
2022-10-23T04:33:30.244Z,63.80
2022-10-23T04:35:58.228Z,63.76
2022-10-23T04:38:26.185Z,63.79
2022-10-23T04:40:54.067Z,63.88
2022-10-23T04:43:21.924Z,63.93
2022-10-23T04:45:51.177Z,63.65
2022-10-23T04:48:19.084Z,63.52
2022-10-23T04:50:56.347Z,63.65
2022-10-23T04:53:24.439Z,63.51
2022-10-23T04:55:52.816Z,63.57
2022-10-23T04:58:20.746Z,63.36
2022-10-23T05:00:48.741Z,63.43
2022-10-23T05:03:18.248Z,63.27
2022-10-23T05:05:46.230Z,63.35
2022-10-23T05:08:17.151Z,63.32
2022-10-23T05:10:46.109Z,63.41
2022-10-23T05:13:14.049Z,63.08
2022-10-23T05:18:16.317Z,63.46
2022-10-23T05:20:45.524Z,63.44
2022-10-23T05:23:13.769Z,63.59
2022-10-23T05:25:41.799Z,63.15
2022-10-23T05:28:09.777Z,63.45
2022-10-23T05:30:37.669Z,63.21
2022-10-23T05:33:05.520Z,63.31
2022-10-23T05:35:33.373Z,63.23
2022-10-23T05:38:02.660Z,63.13
2022-10-23T05:40:30.571Z,63.39
2022-10-23T05:42:58.520Z,62.83
2022-10-23T05:45:26.381Z,62.68
2022-10-23T05:47:56.527Z,63.13
2022-10-23T05:50:26.653Z,62.59
2022-10-23T05:52:54.521Z,62.85
2022-10-23T05:55:23.837Z,62.75
2022-10-23T05:57:51.725Z,63.10
2022-10-23T06:00:19.746Z,63.31
2022-10-23T06:02:47.646Z,63.21
2022-10-23T06:05:15.563Z,63.02
2022-10-23T06:07:43.852Z,63.44
2022-10-23T06:10:11.928Z,63.14
2022-10-23T06:12:41.180Z,62.97
2022-10-23T06:15:10.391Z,63.10
2022-10-23T06:17:39.281Z,62.79
2022-10-23T06:20:08.470Z,62.89
2022-10-23T06:22:36.322Z,62.97
2022-10-23T06:25:04.216Z,63.06
2022-10-23T06:27:32.117Z,62.71
2022-10-23T06:30:01.393Z,62.56
2022-10-23T06:32:32.236Z,62.42
2022-10-23T06:35:00.081Z,62.70
2022-10-23T06:37:27.963Z,62.83
2022-10-23T06:39:55.815Z,62.83
2022-10-23T06:42:23.694Z,63.07
2022-10-23T06:44:51.595Z,62.75
2022-10-23T06:47:20.809Z,62.72
2022-10-23T06:49:48.871Z,63.14
2022-10-23T06:52:34.900Z,63.08
2022-10-23T06:55:04.945Z,62.99
2022-10-23T06:57:32.883Z,62.74
2022-10-23T07:00:00.719Z,62.82
2022-10-23T07:02:29.924Z,62.86
2022-10-23T07:04:57.847Z,62.98
2022-10-23T07:07:25.828Z,62.72
2022-10-23T07:09:53.659Z,63.13
2022-10-23T07:12:21.625Z,62.63
2022-10-23T07:14:49.524Z,62.75
2022-10-23T07:17:17.376Z,62.48
2022-10-23T07:19:47.849Z,62.67
2022-10-23T07:22:16.197Z,62.88
2022-10-23T07:24:44.176Z,62.71
2022-10-23T07:27:12.075Z,62.80
2022-10-23T07:29:39.968Z,62.88
2022-10-23T07:32:07.876Z,62.53
2022-10-23T07:34:36.913Z,62.51
2022-10-23T07:37:06.163Z,62.76
2022-10-23T07:39:34.100Z,62.90
2022-10-23T07:42:02.019Z,63.04
2022-10-23T07:44:29.860Z,62.80
2022-10-23T07:46:57.751Z,62.99
2022-10-23T07:49:25.625Z,62.87
2022-10-23T07:51:53.994Z,62.87
2022-10-23T07:54:23.334Z,62.85
2022-10-23T07:56:51.201Z,63.44
2022-10-23T07:59:19.042Z,63.46
2022-10-23T08:01:49.574Z,63.52
2022-10-23T08:04:21.308Z,63.18
2022-10-23T08:06:51.005Z,63.53
2022-10-23T08:09:21.803Z,63.14
2022-10-23T08:11:54.851Z,63.22
2022-10-23T08:14:26.324Z,63.31
2022-10-23T08:16:54.310Z,63.21
2022-10-23T08:19:24.026Z,63.43
2022-10-23T08:21:55.042Z,63.43
2022-10-23T08:24:26.019Z,63.01
2022-10-23T08:26:56.495Z,63.58
2022-10-23T08:29:25.364Z,63.34
2022-10-23T08:31:58.049Z,63.65
2022-10-23T08:34:29.358Z,63.50
2022-10-23T08:37:00.423Z,63.77
2022-10-23T08:39:30.973Z,63.57
2022-10-23T08:42:01.890Z,63.63
2022-10-23T08:44:33.342Z,63.36
2022-10-23T08:47:06.551Z,63.55
2022-10-23T08:49:47.548Z,63.76
2022-10-23T08:52:23.857Z,63.15
2022-10-23T08:55:02.487Z,63.40
2022-10-23T08:57:40.091Z,63.38
2022-10-23T09:00:14.842Z,63.23
2022-10-23T09:02:45.543Z,62.90
2022-10-23T09:05:17.080Z,63.21
2022-10-23T09:08:00.551Z,63.35
2022-10-23T09:10:51.840Z,63.11
2022-10-23T09:14:00.601Z,62.96
2022-10-23T09:16:43.088Z,63.01
2022-10-23T09:19:15.226Z,62.86
2022-10-23T09:21:47.796Z,62.78
2022-10-23T09:24:18.322Z,62.82
2022-10-23T09:26:49.922Z,62.66
2022-10-23T09:29:25.499Z,62.51
2022-10-23T09:31:56.538Z,62.11
2022-10-23T09:34:26.784Z,62.24
2022-10-23T09:36:57.814Z,61.92
2022-10-23T09:39:29.255Z,61.85
2022-10-23T09:41:58.684Z,61.73
2022-10-23T09:44:30.114Z,61.48
2022-10-23T09:47:02.369Z,61.22
2022-10-23T09:49:32.550Z,60.95
2022-10-23T09:52:04.712Z,60.37
2022-10-23T09:54:33.521Z,60.54
2022-10-23T09:57:05.067Z,60.43
2022-10-23T09:59:34.409Z,60.30
2022-10-23T10:02:04.083Z,59.98
2022-10-23T10:04:33.621Z,59.72
2022-10-23T10:07:05.958Z,59.32
2022-10-23T10:09:33.987Z,59.07
2022-10-23T10:12:12.861Z,58.74
2022-10-23T10:14:46.732Z,58.42
2022-10-23T10:17:19.501Z,58.78
2022-10-23T10:20:03.838Z,57.86
2022-10-23T10:22:36.789Z,57.80
2022-10-23T10:25:08.555Z,57.20
2022-10-23T10:27:43.605Z,56.92
2022-10-23T10:30:15.545Z,56.72
2022-10-23T10:32:46.691Z,56.50
2022-10-23T10:35:38.331Z,56.04
2022-10-23T10:38:17.846Z,55.16
2022-10-23T10:40:48.981Z,54.27
2022-10-23T10:43:25.549Z,54.50
2022-10-23T10:46:00.520Z,55.73
2022-10-23T10:48:36.923Z,56.65
2022-10-23T10:51:07.068Z,57.86
2022-10-23T10:53:40.483Z,57.01
2022-10-23T10:58:45.096Z,56.67
2022-10-23T11:01:17.010Z,55.83
2022-10-23T11:03:47.446Z,52.71
2022-10-23T11:06:17.406Z,50.88
2022-10-23T11:08:57.442Z,51.06
2022-10-23T11:11:29.147Z,49.98
2022-10-23T11:13:57.697Z,49.31
2022-10-23T11:16:27.611Z,48.01
2022-10-23T11:19:01.245Z,48.11
2022-10-23T11:21:31.972Z,47.75
2022-10-23T11:24:21.774Z,46.34
2022-10-23T11:26:57.380Z,45.16
2022-10-23T11:29:53.405Z,44.34
2022-10-23T11:32:56.396Z,44.21
2022-10-23T11:35:30.831Z,45.08
2022-10-23T11:38:00.711Z,46.02
2022-10-23T11:40:28.613Z,45.87
2022-10-23T11:42:56.518Z,47.27
2022-10-23T11:45:33.123Z,48.17
2022-10-23T11:48:03.324Z,47.94
2022-10-23T11:50:33.169Z,47.22
2022-10-23T11:53:14.850Z,46.49
2022-10-23T11:56:00.899Z,43.32
2022-10-23T11:58:32.176Z,42.29
2022-10-23T12:01:05.204Z,41.67
2022-10-23T12:03:50.604Z,42.43
2022-10-23T12:06:27.240Z,43.57
2022-10-23T12:08:56.396Z,43.09
2022-10-23T12:11:29.326Z,41.33
2022-10-23T12:13:57.168Z,41.63
2022-10-23T12:16:35.847Z,40.30
2022-10-23T12:19:17.942Z,40.41
2022-10-23T12:21:45.857Z,39.74
2022-10-23T12:24:31.960Z,39.47
2022-10-23T12:27:05.733Z,39.66
2022-10-23T12:29:47.716Z,38.88
2022-10-23T12:32:22.687Z,37.66
2022-10-23T12:35:00.351Z,38.15
2022-10-23T12:37:45.044Z,37.53
2022-10-23T12:40:12.926Z,36.99
2022-10-23T12:42:41.013Z,36.16
2022-10-23T12:45:18.833Z,35.81
2022-10-23T12:47:47.011Z,35.98
2022-10-23T12:50:20.861Z,36.42
2022-10-23T12:52:55.897Z,36.73
2022-10-23T12:55:24.023Z,36.70
2022-10-23T12:57:51.912Z,36.72
2022-10-23T13:00:21.239Z,37.47
2022-10-23T13:02:58.839Z,38.01
2022-10-23T13:05:28.149Z,38.67
2022-10-23T13:07:56.024Z,38.21
2022-10-23T13:10:24.142Z,38.38
2022-10-23T13:12:54.499Z,37.81
2022-10-23T13:15:22.955Z,36.57
2022-10-23T13:18:01.606Z,36.35
2022-10-23T13:20:31.775Z,35.83
2022-10-23T13:23:01.658Z,35.28
2022-10-23T13:25:30.864Z,35.48
2022-10-23T13:28:17.789Z,36.07
2022-10-23T13:30:46.335Z,36.88
2022-10-23T13:33:23.952Z,37.91
2022-10-23T13:35:59.589Z,38.42
2022-10-23T13:38:32.108Z,39.47
2022-10-23T13:41:00.700Z,39.93
2022-10-23T13:43:29.307Z,40.50
2022-10-23T13:45:57.429Z,41.06
2022-10-23T13:48:25.667Z,42.03
2022-10-23T13:50:53.692Z,42.57
2022-10-23T13:53:22.972Z,43.12
2022-10-23T13:55:57.832Z,43.16
2022-10-23T13:58:26.927Z,43.71
2022-10-23T14:00:55.187Z,43.79
2022-10-23T14:03:26.317Z,44.11
2022-10-23T14:05:56.096Z,44.11
2022-10-23T14:08:25.317Z,44.46
2022-10-23T14:10:53.318Z,44.52
2022-10-23T14:13:21.222Z,44.93
2022-10-23T14:15:54.530Z,45.08
2022-10-23T14:18:22.521Z,45.19
2022-10-23T14:20:50.453Z,45.39
2022-10-23T14:23:21.318Z,45.61
2022-10-23T14:25:52.425Z,45.72
2022-10-23T14:28:21.746Z,45.71
2022-10-23T14:30:49.753Z,46.03
2022-10-23T14:33:17.592Z,46.14
2022-10-23T14:35:45.456Z,46.61
2022-10-23T14:38:15.487Z,46.88
2022-10-23T14:40:43.371Z,47.07
2022-10-23T14:43:12.842Z,47.29
2022-10-23T14:45:40.744Z,47.62
2022-10-23T14:48:08.648Z,47.84
2022-10-23T14:50:37.445Z,48.07
2022-10-23T14:53:05.321Z,48.39
2022-10-23T14:55:33.164Z,48.71
2022-10-23T14:58:01.227Z,48.65
2022-10-23T15:00:33.115Z,48.95
2022-10-23T15:03:00.988Z,49.12
2022-10-23T15:05:28.882Z,48.96
2022-10-23T15:07:57.066Z,49.29
2022-10-23T15:10:24.937Z,49.56
2022-10-23T15:12:52.966Z,49.97
2022-10-23T15:15:22.362Z,49.77
2022-10-23T15:17:51.708Z,50.17
2022-10-23T15:20:19.792Z,50.13
2022-10-23T15:22:49.847Z,50.30
2022-10-23T15:25:18.198Z,50.57
2022-10-23T15:27:46.346Z,50.53
2022-10-23T15:30:14.593Z,50.62
2022-10-23T15:32:42.455Z,50.84
2022-10-23T15:35:14.816Z,50.80
2022-10-23T15:37:42.923Z,50.94
2022-10-23T15:40:11.736Z,51.08
2022-10-23T15:42:39.633Z,51.19
2022-10-23T15:45:08.605Z,51.13
2022-10-23T15:47:36.451Z,51.03
2022-10-23T15:50:04.576Z,51.36
2022-10-23T15:52:33.840Z,51.57
2022-10-23T15:55:01.692Z,51.68
2022-10-23T15:57:31.189Z,51.40
2022-10-23T15:59:59.124Z,51.30
2022-10-23T16:02:27.091Z,51.44
2022-10-23T16:04:55.037Z,51.68
2022-10-23T16:07:23.044Z,51.93
2022-10-23T16:09:52.333Z,52.03
2022-10-23T16:12:20.234Z,51.89
2022-10-23T16:14:48.170Z,51.91
2022-10-23T16:19:49.073Z,52.10
2022-10-23T16:22:17.520Z,52.15
2022-10-23T16:24:45.401Z,52.26
2022-10-23T16:27:17.234Z,52.57
2022-10-23T16:29:46.172Z,52.27
2022-10-23T16:32:14.025Z,52.54
2022-10-23T16:34:41.954Z,52.51
2022-10-23T16:37:09.843Z,52.48
2022-10-23T16:39:37.896Z,52.75
2022-10-23T16:42:06.023Z,52.82
2022-10-23T16:44:35.350Z,52.82
2022-10-23T16:47:03.209Z,52.61
2022-10-23T16:49:32.232Z,52.91
2022-10-23T16:52:00.148Z,53.11
2022-10-23T16:54:27.975Z,53.26
2022-10-23T16:56:55.852Z,53.02
2022-10-23T16:59:23.724Z,53.35
2022-10-23T17:01:53.302Z,53.46
2022-10-23T17:04:21.348Z,53.43
2022-10-23T17:06:49.237Z,53.33
2022-10-23T17:09:19.291Z,53.64
2022-10-23T17:11:48.014Z,53.48
2022-10-23T17:14:17.473Z,53.52
2022-10-23T17:16:49.247Z,53.58
2022-10-23T17:19:43.831Z,53.96
2022-10-23T17:22:10.579Z,54.28
2022-10-23T17:24:38.788Z,54.42
2022-10-23T17:27:06.655Z,54.29
2022-10-23T17:29:34.560Z,54.44
2022-10-23T17:32:03.263Z,54.17
2022-10-23T17:34:32.537Z,54.36
2022-10-23T17:37:00.412Z,54.36
2022-10-23T17:39:29.253Z,54.22
2022-10-23T17:41:57.174Z,54.09
2022-10-23T17:44:25.066Z,54.42
2022-10-23T17:46:54.396Z,54.45
2022-10-23T17:49:22.367Z,54.60
2022-10-23T17:51:53.419Z,54.33
2022-10-23T17:54:21.488Z,54.49
2022-10-23T17:56:49.346Z,54.60
2022-10-23T17:59:19.013Z,54.70
2022-10-23T18:01:48.285Z,54.75
2022-10-23T18:04:16.880Z,54.64
2022-10-23T18:06:45.757Z,54.70
2022-10-23T18:09:15.024Z,54.89
2022-10-23T18:11:46.887Z,54.72
2022-10-23T18:14:15.975Z,54.59
2022-10-23T18:16:45.515Z,54.90
2022-10-23T18:19:13.466Z,54.89
2022-10-23T18:21:41.378Z,54.70
2022-10-23T18:24:09.455Z,55.12
2022-10-23T18:26:39.259Z,54.82
2022-10-23T18:29:08.686Z,54.86
2022-10-23T18:31:37.410Z,55.41
2022-10-23T18:34:07.590Z,55.10
2022-10-23T18:36:36.319Z,55.24
2022-10-23T18:39:04.424Z,55.22
2022-10-23T18:41:34.087Z,55.05
2022-10-23T18:44:03.533Z,55.19
2022-10-23T18:46:31.531Z,55.63
2022-10-23T18:48:59.493Z,55.54
2022-10-23T18:51:29.099Z,55.35
2022-10-23T18:53:57.011Z,55.40
2022-10-23T18:56:26.720Z,55.49
2022-10-23T18:58:55.585Z,55.48
2022-10-23T19:01:25.324Z,55.86
2022-10-23T19:03:53.451Z,55.56
2022-10-23T19:06:21.763Z,55.50
2022-10-23T19:08:49.749Z,55.50
2022-10-23T19:11:18.259Z,56.12
2022-10-23T19:13:46.163Z,56.33
2022-10-23T19:16:15.551Z,56.18
2022-10-23T19:18:46.379Z,56.36
2022-10-23T19:21:14.211Z,56.14
2022-10-23T19:23:42.223Z,56.64
2022-10-23T19:26:12.411Z,56.33
2022-10-23T19:28:42.359Z,56.78
2022-10-23T19:31:10.531Z,56.55
2022-10-23T19:33:38.948Z,56.22
2022-10-23T19:36:13.916Z,56.26
2022-10-23T19:38:42.619Z,56.58
2022-10-23T19:41:10.604Z,56.65
2022-10-23T19:43:38.781Z,56.64
2022-10-23T19:46:09.489Z,56.65
2022-10-23T19:48:42.458Z,56.47
2022-10-23T19:51:12.947Z,56.40
2022-10-23T19:53:41.973Z,56.40
2022-10-23T19:56:11.088Z,56.67
2022-10-23T19:58:39.048Z,56.50
2022-10-23T20:01:11.386Z,56.66
2022-10-23T20:03:39.668Z,56.74
2022-10-23T20:06:11.652Z,56.90
2022-10-23T20:08:39.573Z,56.82
2022-10-23T20:11:07.655Z,56.65
2022-10-23T20:13:35.737Z,56.68
2022-10-23T20:16:03.584Z,56.85
2022-10-23T20:18:31.499Z,56.87
2022-10-23T20:21:02.049Z,57.02
2022-10-23T20:23:31.348Z,57.03
2022-10-23T20:26:05.382Z,57.09
2022-10-23T20:28:33.307Z,56.85
2022-10-23T20:31:03.216Z,56.91
2022-10-23T20:33:31.033Z,56.75
2022-10-23T20:35:58.929Z,56.82
2022-10-23T20:38:26.809Z,56.97
2022-10-23T20:41:00.348Z,56.67
2022-10-23T20:43:28.269Z,56.57
2022-10-23T20:45:56.188Z,56.98
2022-10-23T20:48:24.052Z,56.89
2022-10-23T20:50:51.891Z,56.67
2022-10-23T20:53:19.756Z,56.79
2022-10-23T20:55:47.662Z,56.70
2022-10-23T20:58:16.917Z,56.93
2022-10-23T21:00:44.830Z,56.92
2022-10-23T21:03:12.740Z,56.92
2022-10-23T21:05:40.614Z,56.59
2022-10-23T21:08:08.501Z,56.88
2022-10-23T21:10:36.356Z,57.02
2022-10-23T21:13:04.280Z,56.99
2022-10-23T21:15:33.574Z,56.74
2022-10-23T21:18:08.023Z,57.26
2022-10-23T21:20:47.167Z,56.92
2022-10-23T21:23:15.047Z,56.99
2022-10-23T21:25:43.016Z,57.11
2022-10-23T21:28:11.277Z,57.15
2022-10-23T21:30:41.124Z,57.03
2022-10-23T21:33:09.016Z,56.85
2022-10-23T21:35:43.152Z,57.05
2022-10-23T21:38:20.287Z,57.06
2022-10-23T21:40:48.193Z,56.89
2022-10-23T21:43:16.069Z,57.37
2022-10-23T21:45:45.301Z,57.27
2022-10-23T21:48:13.180Z,57.52
2022-10-23T21:50:41.067Z,57.26
2022-10-23T21:53:08.975Z,57.28
2022-10-23T21:55:37.302Z,56.95
2022-10-23T21:58:05.201Z,56.71
2022-10-23T22:00:33.102Z,56.92
2022-10-23T22:03:02.512Z,56.72
2022-10-23T22:05:30.571Z,57.14
2022-10-23T22:07:58.422Z,56.89
2022-10-23T22:10:26.389Z,57.00
2022-10-23T22:12:54.258Z,57.24
2022-10-23T22:15:22.209Z,56.89
2022-10-23T22:17:50.104Z,57.29
2022-10-23T22:20:19.562Z,57.15
2022-10-23T22:22:47.445Z,57.33
2022-10-23T22:25:15.320Z,57.56
2022-10-23T22:27:43.518Z,57.15
2022-10-23T22:30:12.901Z,57.58
2022-10-23T22:32:40.769Z,57.14
2022-10-23T22:35:09.345Z,57.60
2022-10-23T22:37:38.725Z,57.59
2022-10-23T22:40:08.559Z,57.19
2022-10-23T22:42:38.518Z,57.45
2022-10-23T22:45:07.287Z,57.72
2022-10-23T22:47:35.136Z,57.51
2022-10-23T22:50:03.178Z,57.68
2022-10-23T22:52:31.039Z,57.75
2022-10-23T22:55:00.361Z,57.50
2022-10-23T22:57:28.240Z,57.53
2022-10-23T22:59:56.120Z,57.46
2022-10-23T23:02:23.989Z,57.84
2022-10-23T23:04:51.992Z,57.64
2022-10-23T23:07:19.884Z,57.55
2022-10-23T23:09:47.749Z,57.49
2022-10-23T23:12:17.009Z,57.67
2022-10-23T23:14:44.936Z,57.33
2022-10-23T23:17:12.835Z,57.81
2022-10-23T23:19:40.714Z,57.86
2022-10-23T23:22:08.737Z,57.76
2022-10-23T23:24:36.586Z,58.05
2022-10-23T23:27:04.493Z,57.78
2022-10-23T23:29:33.708Z,57.68
2022-10-23T23:32:01.580Z,57.51
2022-10-23T23:34:29.635Z,57.92
2022-10-23T23:36:57.495Z,57.91
2022-10-23T23:39:26.093Z,57.47
2022-10-23T23:41:54.005Z,57.52
2022-10-23T23:44:21.888Z,57.35
2022-10-23T23:46:51.135Z,57.47
2022-10-23T23:49:18.993Z,57.71
2022-10-23T23:51:46.912Z,57.96
2022-10-23T23:54:14.809Z,57.57
2022-10-23T23:56:42.703Z,57.57
2022-10-23T23:59:10.538Z,57.54
